createdAt,value
2022-09-06T00:01:10.931Z,76943.19
2022-09-06T00:03:38.654Z,76936.84
2022-09-06T00:06:11.162Z,76932.63
2022-09-06T00:08:40.542Z,76943.19
2022-09-06T00:11:08.500Z,76981.31
2022-09-06T00:13:36.548Z,76972.84
2022-09-06T00:16:08.959Z,76955.91
2022-09-06T00:18:37.138Z,76970.72
2022-09-06T00:21:05.140Z,76983.44
2022-09-06T00:23:33.106Z,76996.13
2022-09-06T00:26:06.235Z,77002.47
2022-09-06T00:28:33.894Z,77017.28
2022-09-06T00:31:09.527Z,77015.19
2022-09-06T00:33:37.383Z,76985.53
2022-09-06T00:36:05.492Z,77023.66
2022-09-06T00:38:33.517Z,77051.16
2022-09-06T00:41:01.178Z,77040.59
2022-09-06T00:43:30.373Z,77015.19
2022-09-06T00:45:58.558Z,76994.00
2022-09-06T00:48:26.649Z,76989.78
2022-09-06T00:50:56.779Z,76991.88
2022-09-06T00:53:25.031Z,76979.19
2022-09-06T00:55:53.016Z,76972.84
2022-09-06T00:58:20.888Z,77010.94
2022-09-06T01:00:50.214Z,77019.41
2022-09-06T01:03:19.084Z,77025.75
2022-09-06T01:05:54.692Z,77061.75
2022-09-06T01:08:31.641Z,77040.59
2022-09-06T01:11:08.644Z,77015.19
2022-09-06T01:13:46.381Z,77046.94
2022-09-06T01:16:22.604Z,77076.56
2022-09-06T01:19:00.993Z,77066.00
2022-09-06T01:21:40.781Z,77074.47
2022-09-06T01:24:33.788Z,77095.63
2022-09-06T01:27:35.569Z,77121.03
2022-09-06T01:30:09.301Z,77112.56
2022-09-06T01:32:43.573Z,77125.28
2022-09-06T01:35:17.029Z,77121.03
2022-09-06T01:37:44.808Z,77106.22
2022-09-06T01:40:12.660Z,77108.34
2022-09-06T01:42:41.569Z,77127.38
2022-09-06T01:45:13.814Z,77129.50
2022-09-06T01:47:42.373Z,77142.19
2022-09-06T01:50:24.477Z,77125.28
2022-09-06T01:52:59.788Z,77125.28
2022-09-06T01:55:32.200Z,77137.97
2022-09-06T01:58:16.043Z,77142.19
2022-09-06T02:00:49.130Z,77146.44
2022-09-06T02:03:21.496Z,77140.09
2022-09-06T02:05:52.459Z,77133.72
2022-09-06T02:08:25.423Z,77116.81
2022-09-06T02:10:56.771Z,77118.91
2022-09-06T02:13:25.498Z,77101.97
2022-09-06T02:15:57.884Z,77099.88
2022-09-06T02:18:29.800Z,77091.41
2022-09-06T02:20:59.368Z,77078.69
2022-09-06T02:23:31.030Z,77076.56
2022-09-06T02:26:00.896Z,77112.56
2022-09-06T02:28:29.036Z,77118.91
2022-09-06T02:31:07.971Z,77157.03
2022-09-06T02:33:36.459Z,77148.56
2022-09-06T02:36:06.875Z,77144.31
2022-09-06T02:38:35.692Z,77150.66
2022-09-06T02:41:04.562Z,77150.66
2022-09-06T02:43:32.260Z,77150.66
2022-09-06T02:45:59.999Z,77142.19
2022-09-06T02:48:29.149Z,77140.09
2022-09-06T02:50:56.808Z,77142.19
2022-09-06T02:53:24.472Z,77159.13
2022-09-06T02:55:52.210Z,77176.06
2022-09-06T02:58:19.929Z,77148.56
2022-09-06T03:00:47.934Z,77161.25
2022-09-06T03:03:16.202Z,77161.25
2022-09-06T03:05:47.982Z,77167.59
2022-09-06T03:08:15.641Z,77197.25
2022-09-06T03:10:49.664Z,77214.19
2022-09-06T03:13:17.458Z,77197.25
2022-09-06T03:15:45.147Z,77188.78
2022-09-06T03:18:13.315Z,77180.31
2022-09-06T03:20:41.278Z,77182.44
2022-09-06T03:23:11.057Z,77190.91
2022-09-06T03:25:38.825Z,77186.66
2022-09-06T03:28:06.567Z,77182.44
2022-09-06T03:30:34.276Z,77173.97
2022-09-06T03:33:03.085Z,77173.97
2022-09-06T03:35:30.822Z,77184.53
2022-09-06T03:37:58.518Z,77190.91
2022-09-06T03:40:27.717Z,77178.19
2022-09-06T03:42:55.418Z,77173.97
2022-09-06T03:45:23.110Z,77167.59
2022-09-06T03:47:50.850Z,77159.13
2022-09-06T03:50:18.588Z,77146.44
2022-09-06T03:52:46.298Z,77150.66
2022-09-06T03:55:14.051Z,77186.66
2022-09-06T03:57:43.297Z,77218.41
2022-09-06T04:00:12.118Z,77233.25
2022-09-06T04:02:39.996Z,77231.13
2022-09-06T04:05:08.322Z,77214.19
2022-09-06T04:07:37.924Z,77226.88
2022-09-06T04:10:07.542Z,77243.81
2022-09-06T04:12:35.407Z,77222.66
2022-09-06T04:15:04.800Z,77226.88
2022-09-06T04:17:32.602Z,77218.41
2022-09-06T04:20:00.327Z,77237.47
2022-09-06T04:22:28.002Z,77250.19
2022-09-06T04:24:55.682Z,77250.19
2022-09-06T04:27:23.714Z,77265.00
2022-09-06T04:29:51.525Z,77269.22
2022-09-06T04:32:20.586Z,77281.94
2022-09-06T04:34:48.252Z,77296.75
2022-09-06T04:37:19.982Z,77286.16
2022-09-06T04:39:47.975Z,77265.00
2022-09-06T04:42:15.991Z,77226.88
2022-09-06T04:44:43.930Z,77209.94
2022-09-06T04:47:15.363Z,77193.00
2022-09-06T04:49:44.435Z,77182.44
2022-09-06T04:52:12.287Z,77184.53
2022-09-06T04:54:40.122Z,77154.91
2022-09-06T04:57:07.998Z,77129.50
2022-09-06T04:59:35.715Z,77116.81
2022-09-06T05:02:03.619Z,77131.63
2022-09-06T05:04:31.395Z,77127.38
2022-09-06T05:07:04.723Z,77106.22
2022-09-06T05:09:32.547Z,77099.88
2022-09-06T05:12:00.978Z,77076.56
2022-09-06T05:14:29.506Z,77053.28
2022-09-06T05:16:57.291Z,77030.00
2022-09-06T05:19:25.061Z,77008.81
2022-09-06T05:21:53.352Z,76985.53
2022-09-06T05:24:22.370Z,76972.84
2022-09-06T05:26:50.312Z,76947.44
2022-09-06T05:29:18.043Z,76926.25
2022-09-06T05:31:45.793Z,76898.75
2022-09-06T05:34:15.029Z,76883.94
2022-09-06T05:36:42.894Z,76883.94
2022-09-06T05:39:10.529Z,76871.22
2022-09-06T05:41:39.587Z,76858.53
2022-09-06T05:44:07.355Z,76835.25
2022-09-06T05:46:34.991Z,76835.25
2022-09-06T05:49:07.818Z,76826.78
2022-09-06T05:51:35.503Z,76797.13
2022-09-06T05:54:03.179Z,76780.19
2022-09-06T05:56:30.918Z,76767.50
2022-09-06T05:58:59.890Z,76739.97
2022-09-06T06:01:29.387Z,76727.28
2022-09-06T06:03:59.004Z,76723.03
2022-09-06T06:06:28.474Z,76701.88
2022-09-06T06:08:56.588Z,76680.69
2022-09-06T06:11:26.000Z,76668.00
2022-09-06T06:13:55.268Z,76642.59
2022-09-06T06:16:25.403Z,76625.66
2022-09-06T06:18:53.303Z,76600.25
2022-09-06T06:21:22.577Z,76591.78
2022-09-06T06:23:52.890Z,76574.88
2022-09-06T06:26:21.107Z,76547.34
2022-09-06T06:28:49.764Z,76515.59
2022-09-06T06:31:17.587Z,76502.88
2022-09-06T06:33:46.768Z,76485.97
2022-09-06T06:36:22.562Z,76469.03
2022-09-06T06:38:51.852Z,76445.75
2022-09-06T06:41:21.444Z,76424.56
2022-09-06T06:43:49.173Z,76407.63
2022-09-06T06:46:19.063Z,76399.16
2022-09-06T06:48:51.563Z,76384.34
2022-09-06T06:51:23.807Z,76371.66
2022-09-06T06:53:51.695Z,76373.78
2022-09-06T06:56:20.979Z,76346.25
2022-09-06T06:58:50.180Z,76325.09
2022-09-06T07:01:18.677Z,76312.38
2022-09-06T07:03:48.089Z,76295.47
2022-09-06T07:06:16.700Z,76287.00
2022-09-06T07:08:47.656Z,76265.81
2022-09-06T07:11:17.820Z,76270.06
2022-09-06T07:13:46.617Z,76267.94
2022-09-06T07:16:16.385Z,76244.66
2022-09-06T07:18:45.895Z,76217.13
2022-09-06T07:24:06.358Z,76189.63
2022-09-06T07:26:36.229Z,76153.63
2022-09-06T07:29:05.578Z,76121.91
2022-09-06T07:34:22.112Z,76100.72
2022-09-06T07:36:53.109Z,76092.25
2022-09-06T07:39:23.150Z,76083.78
2022-09-06T07:41:50.981Z,76096.50
2022-09-06T07:44:18.629Z,76136.72
2022-09-06T07:46:46.413Z,76119.78
2022-09-06T07:49:14.222Z,76121.91
2022-09-06T07:51:41.962Z,76090.16
2022-09-06T07:54:29.918Z,76062.63
2022-09-06T07:56:58.700Z,76047.81
2022-09-06T07:59:27.485Z,76026.66
2022-09-06T08:01:55.208Z,76018.19
2022-09-06T08:04:22.987Z,75997.03
2022-09-06T08:09:41.300Z,75954.69
2022-09-06T08:12:09.604Z,75933.53
2022-09-06T08:14:37.369Z,75903.91
2022-09-06T08:17:05.572Z,75895.44
2022-09-06T08:19:36.588Z,75870.03
2022-09-06T08:22:04.542Z,75874.25
2022-09-06T08:24:35.896Z,75861.56
2022-09-06T08:27:07.791Z,75861.56
2022-09-06T08:29:35.655Z,75842.53
2022-09-06T08:32:03.824Z,75831.94
2022-09-06T08:34:31.563Z,75825.59
2022-09-06T08:36:59.207Z,75836.16
2022-09-06T08:39:27.742Z,75821.34
2022-09-06T08:41:57.834Z,75815.00
2022-09-06T08:47:18.246Z,75815.00
2022-09-06T08:49:47.393Z,75829.81
2022-09-06T08:52:28.354Z,75827.69
2022-09-06T08:55:05.047Z,75787.50
2022-09-06T08:57:45.818Z,75749.41
2022-09-06T09:00:16.320Z,75738.81
2022-09-06T09:02:45.918Z,75728.22
2022-09-06T09:05:24.451Z,75736.69
2022-09-06T09:08:01.005Z,75719.78
2022-09-06T09:10:30.661Z,75736.69
2022-09-06T09:12:58.747Z,75711.31
2022-09-06T09:15:28.810Z,75679.56
2022-09-06T09:17:56.872Z,75645.69
2022-09-06T09:20:24.786Z,75643.56
2022-09-06T09:22:52.447Z,75630.88
2022-09-06T09:25:23.283Z,75607.59
2022-09-06T09:27:57.853Z,75588.56
2022-09-06T09:33:28.457Z,75590.69
2022-09-06T09:35:57.164Z,75588.56
2022-09-06T09:38:27.627Z,75584.31
2022-09-06T09:40:57.468Z,75561.03
2022-09-06T09:43:26.612Z,75561.03
2022-09-06T09:46:16.835Z,75537.75
2022-09-06T09:48:49.663Z,75531.41
2022-09-06T09:51:26.342Z,75531.41
2022-09-06T09:53:56.491Z,75529.31
2022-09-06T09:56:30.434Z,75506.03
2022-09-06T09:58:59.222Z,75480.63
2022-09-06T10:01:33.750Z,75482.75
2022-09-06T10:07:08.141Z,75508.13
2022-09-06T10:09:38.086Z,75499.66
2022-09-06T10:12:06.458Z,75539.88
2022-09-06T10:14:41.265Z,75542.00
2022-09-06T10:17:19.670Z,75501.78
2022-09-06T10:19:48.756Z,75467.94
2022-09-06T10:22:28.414Z,75457.34
2022-09-06T10:25:26.571Z,75427.72
2022-09-06T10:28:23.895Z,75400.22
2022-09-06T10:31:17.115Z,75389.63
2022-09-06T10:33:57.530Z,75395.97
2022-09-06T10:36:30.025Z,75389.63
2022-09-06T10:39:03.643Z,75476.41
2022-09-06T10:41:49.439Z,75448.88
2022-09-06T10:44:27.841Z,75446.78
2022-09-06T10:47:01.107Z,75556.81
2022-09-06T10:49:30.247Z,75527.19
2022-09-06T10:51:59.622Z,75476.41
2022-09-06T10:54:27.396Z,75451.00
2022-09-06T10:56:58.780Z,75431.97
2022-09-06T10:59:36.265Z,75474.28
2022-09-06T11:02:14.180Z,75461.59
2022-09-06T11:07:35.287Z,75417.13
2022-09-06T11:10:10.050Z,75429.84
2022-09-06T11:12:41.298Z,75486.97
2022-09-06T11:15:13.610Z,75429.84
2022-09-06T11:17:46.760Z,75423.50
2022-09-06T11:20:20.099Z,75381.16
2022-09-06T11:23:10.376Z,75321.91
2022-09-06T11:25:59.889Z,75292.28
2022-09-06T11:28:32.866Z,75290.16
2022-09-06T11:31:01.184Z,75296.53
2022-09-06T11:33:30.596Z,75302.88
2022-09-06T11:36:19.516Z,75338.84
2022-09-06T11:38:56.303Z,75313.44
2022-09-06T11:41:29.862Z,75288.06
2022-09-06T11:43:57.710Z,75249.97
2022-09-06T11:47:00.353Z,75233.03
2022-09-06T11:49:41.359Z,75216.09
2022-09-06T11:52:59.283Z,75228.81
2022-09-06T11:55:35.940Z,75197.06
2022-09-06T11:58:05.980Z,75194.94
2022-09-06T12:00:33.898Z,75260.53
2022-09-06T12:06:15.071Z,75192.84
2022-09-06T12:08:43.620Z,75163.22
2022-09-06T12:11:30.357Z,75171.66
2022-09-06T12:14:03.087Z,75152.63
2022-09-06T12:17:08.909Z,75144.16
2022-09-06T12:19:44.375Z,75133.59
2022-09-06T12:22:53.514Z,75131.47
2022-09-06T12:25:53.227Z,75180.13
2022-09-06T12:28:34.672Z,75161.09
2022-09-06T12:31:03.418Z,75133.59
2022-09-06T12:33:32.953Z,75114.53
2022-09-06T12:36:14.552Z,75131.47
2022-09-06T12:38:55.184Z,75114.53
2022-09-06T12:41:24.136Z,75110.31
2022-09-06T12:43:55.792Z,75106.06
2022-09-06T12:46:25.086Z,75123.00
2022-09-06T12:49:08.028Z,75152.63
2022-09-06T12:51:36.331Z,75120.88
2022-09-06T12:54:05.671Z,75084.91
2022-09-06T12:56:35.284Z,75057.41
2022-09-06T12:59:19.268Z,75055.28
2022-09-06T13:01:52.308Z,75042.59
2022-09-06T13:04:27.450Z,75065.88
2022-09-06T13:06:55.639Z,75127.22
2022-09-06T13:09:26.934Z,75144.16
2022-09-06T13:11:57.859Z,75076.44
2022-09-06T13:14:29.337Z,75057.41
2022-09-06T13:16:57.968Z,74987.56
2022-09-06T13:19:33.785Z,75008.75
2022-09-06T13:22:03.996Z,74993.94
2022-09-06T13:24:46.831Z,74936.78
2022-09-06T13:27:25.827Z,74862.75
2022-09-06T13:29:59.440Z,74886.00
2022-09-06T13:32:28.793Z,74860.63
2022-09-06T13:34:58.671Z,74894.47
2022-09-06T13:37:28.394Z,74898.72
2022-09-06T13:39:57.580Z,74850.03
2022-09-06T13:42:28.417Z,74805.63
2022-09-06T13:45:01.920Z,74784.44
2022-09-06T13:47:30.380Z,74765.41
2022-09-06T13:49:58.097Z,74771.75
2022-09-06T13:52:25.943Z,74742.13
2022-09-06T13:54:53.944Z,74780.22
2022-09-06T13:57:24.470Z,74750.59
2022-09-06T13:59:52.561Z,74725.22
2022-09-06T14:02:21.750Z,74913.53
2022-09-06T14:04:49.665Z,74981.22
2022-09-06T14:07:17.724Z,74970.66
2022-09-06T14:09:45.876Z,75029.91
2022-09-06T14:12:13.812Z,74917.75
2022-09-06T14:14:41.861Z,74911.41
2022-09-06T14:17:09.808Z,74866.97
2022-09-06T14:19:41.658Z,74932.56
2022-09-06T14:22:09.389Z,74852.16
2022-09-06T14:24:37.094Z,74801.38
2022-09-06T14:27:07.541Z,74826.78
2022-09-06T14:29:35.663Z,74951.59
2022-09-06T14:32:04.029Z,74898.72
2022-09-06T14:34:32.652Z,74845.81
2022-09-06T14:37:01.756Z,74869.09
2022-09-06T14:39:29.820Z,74820.41
2022-09-06T14:41:57.723Z,74833.13
2022-09-06T14:44:25.952Z,74962.19
2022-09-06T14:46:54.673Z,74941.03
2022-09-06T14:49:22.424Z,74894.47
2022-09-06T14:51:50.239Z,74886.00
2022-09-06T14:54:24.171Z,74839.47
2022-09-06T14:56:55.070Z,74811.97
2022-09-06T14:59:22.908Z,74792.91
2022-09-06T15:01:50.683Z,74822.53
2022-09-06T15:04:19.026Z,74831.00
2022-09-06T15:06:47.948Z,74864.84
2022-09-06T15:09:16.372Z,74852.16
2022-09-06T15:11:48.287Z,74888.13
2022-09-06T15:14:18.753Z,74928.34
2022-09-06T15:16:48.968Z,74919.88
2022-09-06T15:19:20.767Z,74979.13
2022-09-06T15:21:48.823Z,75004.50
2022-09-06T15:24:16.969Z,74979.13
2022-09-06T15:26:46.067Z,74985.47
2022-09-06T15:29:15.235Z,75008.75
2022-09-06T15:31:43.729Z,75065.88
2022-09-06T15:34:12.391Z,75063.75
2022-09-06T15:36:40.180Z,75131.47
2022-09-06T15:39:07.900Z,75139.94
2022-09-06T15:41:37.325Z,75123.00
2022-09-06T15:44:09.481Z,75125.13
2022-09-06T15:46:46.273Z,75137.81
2022-09-06T15:49:18.157Z,75156.84
2022-09-06T15:51:47.129Z,75148.41
2022-09-06T15:54:17.578Z,75173.78
2022-09-06T15:56:44.729Z,75192.84
2022-09-06T15:59:14.517Z,75192.84
2022-09-06T16:01:42.733Z,75218.22
2022-09-06T16:04:11.131Z,75245.72
2022-09-06T16:06:42.753Z,75249.97
2022-09-06T16:09:14.381Z,75266.91
2022-09-06T16:11:43.533Z,75275.34
2022-09-06T16:14:17.780Z,75288.06
2022-09-06T16:16:51.305Z,75302.88
2022-09-06T16:19:20.127Z,75324.03
2022-09-06T16:22:00.724Z,75324.03
2022-09-06T16:24:31.076Z,75343.06
2022-09-06T16:26:59.367Z,75362.13
2022-09-06T16:29:28.766Z,75379.06
2022-09-06T16:32:00.588Z,75395.97
2022-09-06T16:34:28.682Z,75406.56
2022-09-06T16:36:57.238Z,75423.50
2022-09-06T16:39:25.130Z,75431.97
2022-09-06T16:41:53.067Z,75440.41
2022-09-06T16:44:20.907Z,75455.22
2022-09-06T16:46:50.877Z,75480.63
2022-09-06T16:49:19.573Z,75491.22
2022-09-06T16:51:48.353Z,75497.56
2022-09-06T16:54:16.583Z,75514.50
2022-09-06T16:56:44.829Z,75525.06
2022-09-06T16:59:15.105Z,75537.75
2022-09-06T17:01:43.495Z,75548.34
2022-09-06T17:04:13.957Z,75556.81
2022-09-06T17:06:44.576Z,75567.41
2022-09-06T17:09:14.126Z,75588.56
2022-09-06T17:11:42.899Z,75605.50
2022-09-06T17:14:10.790Z,75622.41
2022-09-06T17:16:56.607Z,75626.66
2022-09-06T17:19:26.950Z,75641.47
2022-09-06T17:21:55.079Z,75662.63
2022-09-06T17:24:23.048Z,75666.84
2022-09-06T17:26:51.103Z,75685.91
2022-09-06T17:29:19.606Z,75709.19
2022-09-06T17:31:48.171Z,75707.06
2022-09-06T17:34:16.667Z,75724.00
2022-09-06T17:36:46.127Z,75732.47
2022-09-06T17:39:15.737Z,75751.50
2022-09-06T17:41:45.774Z,75755.75
2022-09-06T17:44:16.002Z,75762.09
2022-09-06T17:47:02.793Z,75772.69
2022-09-06T17:49:32.084Z,75779.03
2022-09-06T17:52:01.357Z,75785.38
2022-09-06T17:54:29.804Z,75798.06
2022-09-06T17:56:57.886Z,75815.00
2022-09-06T17:59:25.832Z,75823.47
2022-09-06T18:01:53.716Z,75829.81
2022-09-06T18:04:21.631Z,75846.75
2022-09-06T18:06:49.804Z,75850.97
2022-09-06T18:09:19.127Z,75850.97
2022-09-06T18:11:47.407Z,75850.97
2022-09-06T18:14:29.205Z,75846.75
2022-09-06T18:16:57.137Z,75855.22
2022-09-06T18:19:26.242Z,75865.78
2022-09-06T18:21:55.177Z,75865.78
2022-09-06T18:24:24.664Z,75863.69
2022-09-06T18:26:52.825Z,75889.06
2022-09-06T18:29:20.929Z,75893.31
2022-09-06T18:31:49.096Z,75889.06
2022-09-06T18:34:17.067Z,75901.78
2022-09-06T18:36:45.539Z,75910.25
2022-09-06T18:39:13.691Z,75912.34
2022-09-06T18:42:01.919Z,75910.25
2022-09-06T18:44:32.615Z,75901.78
2022-09-06T18:47:02.768Z,75901.78
2022-09-06T18:49:31.186Z,75925.06
2022-09-06T18:51:59.342Z,75927.19
2022-09-06T18:54:27.799Z,75939.88
2022-09-06T18:56:57.223Z,75942.00
2022-09-06T18:59:25.428Z,75944.09
2022-09-06T19:01:55.015Z,75944.09
2022-09-06T19:04:23.744Z,75944.09
2022-09-06T19:06:52.158Z,75958.91
2022-09-06T19:09:21.351Z,75961.03
2022-09-06T19:11:52.718Z,75965.28
2022-09-06T19:14:22.373Z,75973.75
2022-09-06T19:16:51.981Z,75994.91
2022-09-06T19:19:21.595Z,75986.44
2022-09-06T19:21:49.958Z,76003.38
2022-09-06T19:24:22.791Z,76009.72
2022-09-06T19:26:53.286Z,76007.59
2022-09-06T19:29:22.990Z,76022.41
2022-09-06T19:31:52.405Z,76026.66
2022-09-06T19:34:20.668Z,76033.00
2022-09-06T19:36:50.242Z,76049.94
2022-09-06T19:39:19.105Z,76058.41
2022-09-06T19:41:48.198Z,76052.03
2022-09-06T19:44:20.866Z,76054.16
2022-09-06T19:46:52.214Z,76047.81
2022-09-06T19:49:20.942Z,76058.41
2022-09-06T19:51:51.542Z,76049.94
2022-09-06T19:54:19.821Z,76049.94
2022-09-06T19:56:51.345Z,76064.75
2022-09-06T19:59:23.964Z,76102.84
2022-09-06T20:02:11.040Z,76115.53
2022-09-06T20:04:43.767Z,76115.53
2022-09-06T20:07:12.319Z,76109.19
2022-09-06T20:09:40.394Z,76107.06
2022-09-06T20:12:09.552Z,76130.34
2022-09-06T20:14:37.899Z,76136.72
2022-09-06T20:17:32.314Z,76143.06
2022-09-06T20:19:56.703Z,76130.34
2022-09-06T20:22:25.266Z,76136.72
2022-09-06T20:24:54.961Z,76149.41
2022-09-06T20:27:23.665Z,76164.22
2022-09-06T20:29:52.691Z,76172.69
2022-09-06T20:32:22.899Z,76174.81
2022-09-06T20:34:52.847Z,76195.97
2022-09-06T20:37:21.127Z,76206.56
2022-09-06T20:39:49.017Z,76229.84
2022-09-06T20:42:17.136Z,76244.66
2022-09-06T20:44:45.367Z,76248.88
2022-09-06T20:47:15.592Z,76248.88
2022-09-06T20:49:44.988Z,76270.06
2022-09-06T20:52:13.036Z,76263.72
2022-09-06T20:54:41.160Z,76267.94
2022-09-06T20:57:09.257Z,76265.81
2022-09-06T20:59:37.339Z,76270.06
2022-09-06T21:02:05.740Z,76265.81
2022-09-06T21:04:33.647Z,76274.28
2022-09-06T21:07:03.454Z,76278.53
2022-09-06T21:09:32.273Z,76265.81
2022-09-06T21:12:00.227Z,76287.00
2022-09-06T21:14:28.362Z,76310.28
2022-09-06T21:16:56.317Z,76314.50
2022-09-06T21:19:25.440Z,76303.91
2022-09-06T21:21:53.562Z,76303.91
2022-09-06T21:24:23.601Z,76308.16
2022-09-06T21:26:51.801Z,76312.38
2022-09-06T21:29:19.578Z,76318.75
2022-09-06T21:31:48.743Z,76318.75
2022-09-06T21:34:17.412Z,76322.97
2022-09-06T21:36:45.604Z,76327.19
2022-09-06T21:39:13.929Z,76329.31
2022-09-06T21:41:43.998Z,76327.19
2022-09-06T21:44:12.292Z,76322.97
2022-09-06T21:46:41.222Z,76325.09
2022-09-06T21:49:10.955Z,76329.31
2022-09-06T21:51:39.735Z,76329.31
2022-09-06T21:54:07.828Z,76335.66
2022-09-06T21:56:36.908Z,76342.03
2022-09-06T21:59:06.747Z,76333.56
2022-09-06T22:01:36.161Z,76344.13
2022-09-06T22:04:06.020Z,76350.50
2022-09-06T22:06:35.593Z,76361.06
2022-09-06T22:09:06.002Z,76375.88
2022-09-06T22:11:35.228Z,76384.34
2022-09-06T22:14:07.321Z,76390.69
2022-09-06T22:16:37.400Z,76399.16
2022-09-06T22:19:06.221Z,76403.41
2022-09-06T22:21:34.910Z,76414.00
2022-09-06T22:24:04.903Z,76426.69
2022-09-06T22:26:34.891Z,76437.28
2022-09-06T22:29:04.385Z,76443.63
2022-09-06T22:31:33.661Z,76447.84
2022-09-06T22:34:03.393Z,76430.91
2022-09-06T22:36:31.436Z,76439.38
2022-09-06T22:39:00.039Z,76439.38
2022-09-06T22:41:29.348Z,76445.75
2022-09-06T22:43:57.606Z,76460.56
2022-09-06T22:46:25.861Z,76460.56
2022-09-06T22:48:54.165Z,76485.97
2022-09-06T22:51:23.755Z,76483.84
2022-09-06T22:53:51.683Z,76479.59
2022-09-06T22:56:19.770Z,76485.97
2022-09-06T22:58:47.828Z,76477.50
2022-09-06T23:01:18.093Z,76485.97
2022-09-06T23:03:46.878Z,76492.31
2022-09-06T23:06:15.111Z,76492.31
2022-09-06T23:08:44.515Z,76502.88
2022-09-06T23:11:14.406Z,76502.88
2022-09-06T23:13:43.676Z,76507.13
2022-09-06T23:16:15.407Z,76509.25
2022-09-06T23:18:43.383Z,76507.13
2022-09-06T23:21:13.538Z,76498.66
2022-09-06T23:23:44.433Z,76513.47
2022-09-06T23:26:14.936Z,76521.94
2022-09-06T23:28:43.604Z,76513.47
2022-09-06T23:31:12.911Z,76528.28
2022-09-06T23:33:41.763Z,76553.69
2022-09-06T23:36:14.581Z,76568.50
2022-09-06T23:38:44.679Z,76551.56
2022-09-06T23:41:13.366Z,76570.63
2022-09-06T23:43:42.741Z,76564.28
2022-09-06T23:46:11.715Z,76574.88
2022-09-06T23:48:39.960Z,76579.09
2022-09-06T23:51:08.238Z,76587.56
2022-09-06T23:53:36.438Z,76576.97
2022-09-06T23:56:06.878Z,76574.88
2022-09-06T23:58:34.987Z,76593.91
